createdAt,value
2023-03-19T00:02:17.499Z,95082.66
2023-03-19T00:04:47.722Z,95083.09
2023-03-19T00:07:16.992Z,95092.75
2023-03-19T00:09:45.350Z,95087.75
2023-03-19T00:12:13.486Z,95082.41
2023-03-19T00:14:42.062Z,95090.81
2023-03-19T00:17:10.037Z,95091.97
2023-03-19T00:19:37.983Z,95090.38
2023-03-19T00:22:07.419Z,95083.09
2023-03-19T00:24:35.678Z,95096.28
2023-03-19T00:27:03.734Z,95091.06
2023-03-19T00:29:31.823Z,95099.78
2023-03-19T00:31:59.731Z,95095.13
2023-03-19T00:34:28.242Z,95094.69
2023-03-19T00:36:57.000Z,95087.88
2023-03-19T00:39:26.350Z,95098.31
2023-03-19T00:41:54.440Z,95098.31
2023-03-19T00:44:22.333Z,95097.47
2023-03-19T00:46:50.725Z,95096.09
2023-03-19T00:49:18.626Z,95100.31
2023-03-19T00:51:46.586Z,95089.31
2023-03-19T00:54:15.052Z,95091.78
2023-03-19T00:56:44.317Z,95091.78
2023-03-19T00:59:12.244Z,95092.22
2023-03-19T01:01:40.173Z,95077.00
2023-03-19T01:04:08.194Z,95077.44
2023-03-19T01:06:36.639Z,95073.38
2023-03-19T01:09:05.753Z,95081.78
2023-03-19T01:11:33.715Z,95077.72
2023-03-19T01:14:03.137Z,95082.97
2023-03-19T01:16:31.581Z,95082.56
2023-03-19T01:18:59.750Z,95081.69
2023-03-19T01:21:30.950Z,95080.38
2023-03-19T01:23:59.371Z,95085.59
2023-03-19T01:26:28.777Z,95071.97
2023-03-19T01:29:05.736Z,95085.16
2023-03-19T01:31:34.643Z,95080.63
2023-03-19T01:34:35.504Z,95075.41
2023-03-19T01:37:09.636Z,95078.59
2023-03-19T01:39:38.424Z,95071.78
2023-03-19T01:42:10.078Z,95075.41
2023-03-19T01:44:53.565Z,95075.84
2023-03-19T01:47:43.844Z,95084.69
2023-03-19T01:50:24.809Z,95073.69
2023-03-19T01:53:03.665Z,95081.63
2023-03-19T01:55:46.501Z,95073.84
2023-03-19T01:58:41.238Z,95076.91
2023-03-19T02:01:31.355Z,95084.34
2023-03-19T02:04:01.358Z,95079.81
2023-03-19T02:06:34.894Z,95079.50
2023-03-19T02:09:04.056Z,95083.34
2023-03-19T02:11:32.234Z,95080.72
2023-03-19T02:14:00.756Z,95080.72
2023-03-19T02:16:30.082Z,95094.25
2023-03-19T02:18:59.192Z,95088.59
2023-03-19T02:21:27.094Z,95087.78
2023-03-19T02:24:01.393Z,95088.94
2023-03-19T02:26:51.658Z,95093.28
2023-03-19T02:29:19.872Z,95086.03
2023-03-19T02:31:48.393Z,95084.00
2023-03-19T02:34:37.855Z,95084.91
2023-03-19T02:37:12.601Z,95082.13
2023-03-19T02:39:48.811Z,95084.59
2023-03-19T02:42:20.838Z,95085.50
2023-03-19T02:44:49.029Z,95093.31
2023-03-19T02:47:17.398Z,95092.75
2023-03-19T02:49:45.420Z,95093.13
2023-03-19T02:52:13.500Z,95091.97
2023-03-19T02:54:41.604Z,95086.31
2023-03-19T02:57:09.811Z,95083.56
2023-03-19T02:59:39.817Z,95084.34
2023-03-19T03:02:08.257Z,95085.94
2023-03-19T03:04:37.116Z,95082.31
2023-03-19T03:07:05.378Z,95081.06
2023-03-19T03:09:33.277Z,95080.28
2023-03-19T03:12:01.357Z,95084.69
2023-03-19T03:14:29.766Z,95092.75
2023-03-19T03:16:59.110Z,95089.13
2023-03-19T03:19:27.213Z,95093.13
2023-03-19T03:21:55.346Z,95093.44
2023-03-19T03:24:24.373Z,95086.75
2023-03-19T03:26:52.282Z,95083.13
2023-03-19T03:29:21.827Z,95086.75
2023-03-19T03:31:49.912Z,95094.00
2023-03-19T03:34:19.563Z,95091.97
2023-03-19T03:36:47.883Z,95105.25
2023-03-19T03:39:16.192Z,95097.06
2023-03-19T03:41:44.373Z,95092.06
2023-03-19T03:44:12.459Z,95097.50
2023-03-19T03:46:43.392Z,95092.50
2023-03-19T03:49:11.777Z,95091.72
2023-03-19T03:51:41.222Z,95088.53
2023-03-19T03:54:09.509Z,95094.97
2023-03-19T03:56:37.551Z,95105.03
2023-03-19T03:59:05.495Z,95104.88
2023-03-19T04:01:33.976Z,95108.94
2023-03-19T04:04:02.074Z,95112.13
2023-03-19T04:06:30.650Z,95107.72
2023-03-19T04:09:15.380Z,95110.97
2023-03-19T04:11:43.387Z,95116.75
2023-03-19T04:14:11.325Z,95114.16
2023-03-19T04:16:40.545Z,95119.94
2023-03-19T04:19:08.791Z,95123.13
2023-03-19T04:21:36.728Z,95119.50
2023-03-19T04:24:05.018Z,95121.53
2023-03-19T04:26:34.541Z,95116.31
2023-03-19T04:29:02.432Z,95121.53
2023-03-19T04:31:30.657Z,95125.75
2023-03-19T04:33:58.775Z,95128.34
2023-03-19T04:36:26.739Z,95119.50
2023-03-19T04:38:54.848Z,95124.28
2023-03-19T04:41:23.285Z,95122.25
2023-03-19T04:44:07.716Z,95122.25
2023-03-19T04:46:36.890Z,95133.28
2023-03-19T04:49:04.832Z,95127.88
2023-03-19T04:51:33.188Z,95127.06
2023-03-19T04:54:01.105Z,95132.84
2023-03-19T04:56:29.218Z,95131.84
2023-03-19T04:58:57.946Z,95133.44
2023-03-19T05:01:27.351Z,95125.63
2023-03-19T05:04:05.158Z,95133.44
2023-03-19T05:06:36.407Z,95135.03
2023-03-19T05:09:05.075Z,95128.22
2023-03-19T05:11:33.247Z,95133.44
2023-03-19T05:14:05.616Z,95142.28
2023-03-19T05:16:50.208Z,95142.28
2023-03-19T05:19:18.180Z,95138.66
2023-03-19T05:21:46.231Z,95142.28
2023-03-19T05:24:15.688Z,95137.06
2023-03-19T05:26:44.663Z,95133.44
2023-03-19T05:29:30.320Z,95134.66
2023-03-19T05:32:20.461Z,95135.91
2023-03-19T05:34:48.730Z,95140.09
2023-03-19T05:37:18.352Z,95137.50
2023-03-19T05:39:52.306Z,95130.25
2023-03-19T05:42:20.311Z,95133.44
2023-03-19T05:44:48.942Z,95137.06
2023-03-19T05:47:28.188Z,95139.88
2023-03-19T05:49:58.324Z,95138.66
2023-03-19T05:52:26.332Z,95141.41
2023-03-19T05:54:57.746Z,95145.59
2023-03-19T05:57:39.490Z,95142.53
2023-03-19T06:00:27.885Z,95146.16
2023-03-19T06:02:57.303Z,95142.91
2023-03-19T06:05:43.988Z,95146.72
2023-03-19T06:08:31.861Z,95154.91
2023-03-19T06:11:09.737Z,95153.13
2023-03-19T06:13:39.217Z,95161.03
2023-03-19T06:16:11.473Z,95165.88
2023-03-19T06:18:50.198Z,95154.88
2023-03-19T06:21:18.238Z,95158.06
2023-03-19T06:23:46.185Z,95158.19
2023-03-19T06:26:18.052Z,95165.94
2023-03-19T06:28:52.302Z,95173.19
2023-03-19T06:31:21.415Z,95161.97
2023-03-19T06:34:00.655Z,95160.38
2023-03-19T06:36:38.316Z,95166.41
2023-03-19T06:39:06.928Z,95171.38
2023-03-19T06:41:34.852Z,95173.56
2023-03-19T06:44:12.994Z,95169.94
2023-03-19T06:46:40.933Z,95176.31
2023-03-19T06:49:10.277Z,95175.06
2023-03-19T06:51:38.240Z,95193.09
2023-03-19T06:54:06.225Z,95187.44
2023-03-19T06:56:34.229Z,95183.84
2023-03-19T06:59:02.309Z,95186.63
2023-03-19T07:01:30.319Z,95190.25
2023-03-19T07:03:58.303Z,95186.63
2023-03-19T07:06:27.587Z,95200.25
2023-03-19T07:08:56.243Z,95208.66
2023-03-19T07:11:24.157Z,95203.00
2023-03-19T07:13:52.077Z,95214.59
2023-03-19T07:16:20.044Z,95213.13
2023-03-19T07:18:48.014Z,95217.88
2023-03-19T07:21:15.959Z,95227.59
2023-03-19T07:23:46.918Z,95223.34
2023-03-19T07:26:15.382Z,95234.53
2023-03-19T07:28:43.244Z,95229.03
2023-03-19T07:31:11.178Z,95222.72
2023-03-19T07:33:39.538Z,95227.84
2023-03-19T07:36:08.493Z,95236.84
2023-03-19T07:38:36.458Z,95243.44
2023-03-19T07:41:06.094Z,95239.00
2023-03-19T07:43:34.041Z,95247.22
2023-03-19T07:46:03.084Z,95246.22
2023-03-19T07:48:31.108Z,95253.47
2023-03-19T07:50:59.078Z,95254.25
2023-03-19T07:53:27.223Z,95255.47
2023-03-19T07:55:55.285Z,95256.34
2023-03-19T07:58:24.686Z,95252.00
2023-03-19T08:00:52.599Z,95256.34
2023-03-19T08:03:20.684Z,95252.72
2023-03-19T08:05:50.001Z,95257.09
2023-03-19T08:08:19.209Z,95259.84
2023-03-19T08:10:48.025Z,95255.78
2023-03-19T08:13:16.066Z,95257.94
2023-03-19T08:15:45.469Z,95258.53
2023-03-19T08:18:13.791Z,95256.50
2023-03-19T08:20:41.711Z,95264.91
2023-03-19T08:23:09.997Z,95264.91
2023-03-19T08:25:37.882Z,95268.13
2023-03-19T08:28:06.057Z,95278.56
2023-03-19T08:30:34.459Z,95272.44
2023-03-19T08:33:04.819Z,95268.66
2023-03-19T08:35:32.805Z,95271.69
2023-03-19T08:38:00.739Z,95274.00
2023-03-19T08:40:28.686Z,95272.41
2023-03-19T08:42:56.938Z,95280.09
2023-03-19T08:45:24.912Z,95285.59
2023-03-19T08:47:52.822Z,95285.28
2023-03-19T08:50:22.404Z,95286.66
2023-03-19T08:52:50.894Z,95291.72
2023-03-19T08:55:19.079Z,95293.63
2023-03-19T08:57:47.060Z,95303.28
2023-03-19T09:00:16.446Z,95306.19
2023-03-19T09:02:44.331Z,95305.16
2023-03-19T09:05:12.276Z,95311.19
2023-03-19T09:07:41.573Z,95302.13
2023-03-19T09:10:10.129Z,95295.59
2023-03-19T09:12:38.046Z,95298.41
2023-03-19T09:15:07.112Z,95305.94
2023-03-19T09:17:35.051Z,95307.16
2023-03-19T09:20:06.118Z,95302.75
2023-03-19T09:22:34.777Z,95304.34
2023-03-19T09:25:04.228Z,95305.50
2023-03-19T09:27:32.571Z,95307.97
2023-03-19T09:30:00.780Z,95310.78
2023-03-19T09:32:28.691Z,95315.22
2023-03-19T09:34:56.607Z,95312.47
2023-03-19T09:37:24.564Z,95311.88
2023-03-19T09:39:52.432Z,95312.81
2023-03-19T09:42:37.528Z,95313.19
2023-03-19T09:45:06.768Z,95308.63
2023-03-19T09:47:37.423Z,95312.47
2023-03-19T09:50:12.533Z,95315.28
2023-03-19T09:52:47.064Z,95317.28
2023-03-19T09:55:26.204Z,95314.88
2023-03-19T09:57:57.852Z,95319.38
2023-03-19T10:00:28.232Z,95312.13
2023-03-19T10:03:03.867Z,95315.31
2023-03-19T10:05:43.567Z,95314.47
2023-03-19T10:08:29.240Z,95300.41
2023-03-19T10:11:12.350Z,95314.84
2023-03-19T10:13:53.941Z,95310.78
2023-03-19T10:16:25.393Z,95309.56
2023-03-19T10:18:57.205Z,95313.19
2023-03-19T10:21:32.343Z,95303.63
2023-03-19T10:24:04.725Z,95314.06
2023-03-19T10:26:35.874Z,95304.03
2023-03-19T10:29:11.284Z,95308.84
2023-03-19T10:31:45.446Z,95308.25
2023-03-19T10:34:29.440Z,95317.69
2023-03-19T10:37:01.258Z,95313.28
2023-03-19T10:39:29.437Z,95310.53
2023-03-19T10:42:09.061Z,95319.38
2023-03-19T10:44:43.413Z,95311.34
2023-03-19T10:47:14.040Z,95315.69
2023-03-19T10:49:42.427Z,95310.88
2023-03-19T10:52:21.417Z,95310.44
2023-03-19T10:54:49.369Z,95308.06
2023-03-19T10:57:26.657Z,95306.03
2023-03-19T10:59:56.398Z,95306.81
2023-03-19T11:02:31.065Z,95307.09
2023-03-19T11:05:23.205Z,95312.25
2023-03-19T11:07:52.557Z,95317.84
2023-03-19T11:10:21.729Z,95306.53
2023-03-19T11:12:55.692Z,95310.72
2023-03-19T11:15:30.031Z,95310.06
2023-03-19T11:18:00.001Z,95312.47
2023-03-19T11:20:34.947Z,95316.53
2023-03-19T11:23:06.240Z,95316.09
2023-03-19T11:25:38.931Z,95313.66
2023-03-19T11:28:09.744Z,95313.25
2023-03-19T11:30:50.851Z,95312.91
2023-03-19T11:33:36.442Z,95317.69
2023-03-19T11:36:13.816Z,95317.09
2023-03-19T11:38:52.774Z,95315.28
2023-03-19T11:41:31.623Z,95308.44
2023-03-19T11:44:02.767Z,95309.63
2023-03-19T11:46:42.799Z,95306.66
2023-03-19T11:49:32.795Z,95319.44
2023-03-19T11:52:08.283Z,95318.63
2023-03-19T11:54:45.201Z,95308.25
2023-03-19T11:57:19.310Z,95315.94
2023-03-19T12:00:08.158Z,95310.34
2023-03-19T12:02:57.086Z,95306.66
2023-03-19T12:05:33.103Z,95309.56
2023-03-19T12:08:20.540Z,95299.84
2023-03-19T12:11:05.128Z,95300.50
2023-03-19T12:13:48.723Z,95298.13
2023-03-19T12:16:25.168Z,95292.47
2023-03-19T12:19:16.922Z,95292.31
2023-03-19T12:21:58.476Z,95288.97
2023-03-19T12:24:41.290Z,95285.28
2023-03-19T12:27:23.943Z,95276.69
2023-03-19T12:29:59.853Z,95277.66
2023-03-19T12:32:42.192Z,95280.44
2023-03-19T12:35:16.468Z,95279.09
2023-03-19T12:37:54.753Z,95266.28
2023-03-19T12:40:29.354Z,95276.53
2023-03-19T12:42:59.789Z,95273.56
2023-03-19T12:45:32.619Z,95278.34
2023-03-19T12:48:08.501Z,95262.19
2023-03-19T12:50:43.019Z,95263.78
2023-03-19T12:53:21.282Z,95260.00
2023-03-19T12:55:55.760Z,95259.06
2023-03-19T12:58:31.375Z,95251.69
2023-03-19T13:01:07.430Z,95256.38
2023-03-19T13:03:42.977Z,95251.13
2023-03-19T13:06:20.409Z,95242.47
2023-03-19T13:08:53.778Z,95238.59
2023-03-19T13:11:32.582Z,95231.31
2023-03-19T13:14:05.290Z,95231.09
2023-03-19T13:16:40.893Z,95228.78
2023-03-19T13:19:21.444Z,95237.22
2023-03-19T13:21:54.454Z,95224.25
2023-03-19T13:24:26.483Z,95233.69
2023-03-19T13:26:56.504Z,95219.81
2023-03-19T13:29:27.063Z,95223.78
2023-03-19T13:32:01.621Z,95229.47
2023-03-19T13:34:33.029Z,95224.13
2023-03-19T13:37:09.050Z,95221.72
2023-03-19T13:39:38.107Z,95219.66
2023-03-19T13:42:23.820Z,95214.34
2023-03-19T13:44:55.138Z,95215.28
2023-03-19T13:47:40.694Z,95218.31
2023-03-19T13:50:27.348Z,95215.59
2023-03-19T13:53:21.409Z,95208.22
2023-03-19T13:55:55.863Z,95211.28
2023-03-19T13:58:44.375Z,95206.63
2023-03-19T14:01:34.876Z,95200.69
2023-03-19T14:04:06.083Z,95193.97
2023-03-19T14:06:38.077Z,95197.03
2023-03-19T14:09:07.933Z,95190.31
2023-03-19T14:11:38.821Z,95183.66
2023-03-19T14:14:14.410Z,95183.22
2023-03-19T14:16:46.538Z,95177.78
2023-03-19T14:19:19.937Z,95186.44
2023-03-19T14:22:11.060Z,95187.78
2023-03-19T14:24:56.391Z,95187.44
2023-03-19T14:27:32.739Z,95182.28
2023-03-19T14:30:09.781Z,95186.88
2023-03-19T14:32:40.913Z,95178.91
2023-03-19T14:35:34.031Z,95177.31
2023-03-19T14:38:03.174Z,95172.88
2023-03-19T14:40:39.750Z,95172.53
2023-03-19T14:43:18.847Z,95164.13
2023-03-19T14:45:54.341Z,95165.72
2023-03-19T14:48:37.375Z,95164.69
2023-03-19T14:51:40.321Z,95163.19
2023-03-19T14:54:24.981Z,95164.69
2023-03-19T14:56:52.963Z,95166.75
2023-03-19T14:59:21.841Z,95167.56
2023-03-19T15:01:53.197Z,95171.66
2023-03-19T15:04:40.158Z,95167.38
2023-03-19T15:07:21.192Z,95160.22
2023-03-19T15:10:14.319Z,95164.66
2023-03-19T15:13:06.241Z,95166.16
2023-03-19T15:16:12.944Z,95164.53
2023-03-19T15:18:40.914Z,95174.44
2023-03-19T15:21:09.445Z,95161.91
2023-03-19T15:23:40.383Z,95161.56
2023-03-19T15:26:11.673Z,95168.31
2023-03-19T15:28:49.510Z,95176.28
2023-03-19T15:32:07.483Z,95176.75
2023-03-19T15:34:42.229Z,95179.69
2023-03-19T15:37:14.163Z,95182.19
2023-03-19T15:39:49.994Z,95187.22
2023-03-19T15:42:20.461Z,95189.75
2023-03-19T15:44:51.386Z,95185.19
2023-03-19T15:47:22.969Z,95190.97
2023-03-19T15:49:57.772Z,95187.28
2023-03-19T15:52:27.121Z,95184.50
2023-03-19T15:54:57.307Z,95199.66
2023-03-19T15:57:26.009Z,95204.31
2023-03-19T15:59:55.470Z,95209.44
2023-03-19T16:02:27.974Z,95205.59
2023-03-19T16:05:20.473Z,95199.94
2023-03-19T16:07:45.242Z,95208.66
2023-03-19T16:10:35.746Z,95213.59
2023-03-19T16:13:05.777Z,95216.94
2023-03-19T16:15:43.648Z,95216.19
2023-03-19T16:18:24.597Z,95216.72
2023-03-19T16:21:02.729Z,95217.31
2023-03-19T16:23:33.215Z,95205.91
2023-03-19T16:26:13.411Z,95207.34
2023-03-19T16:28:45.310Z,95208.81
2023-03-19T16:31:25.941Z,95220.41
2023-03-19T16:33:54.396Z,95212.13
2023-03-19T16:36:23.212Z,95221.13
2023-03-19T16:38:57.272Z,95228.81
2023-03-19T16:41:32.346Z,95241.44
2023-03-19T16:44:14.309Z,95247.94
2023-03-19T16:46:42.525Z,95260.69
2023-03-19T16:49:10.703Z,95243.16
2023-03-19T16:51:39.312Z,95243.59
2023-03-19T16:54:07.458Z,95227.06
2023-03-19T16:56:37.475Z,95223.88
2023-03-19T16:59:05.700Z,95220.25
2023-03-19T17:01:33.641Z,95225.03
2023-03-19T17:04:01.647Z,95229.00
2023-03-19T17:06:34.388Z,95233.69
2023-03-19T17:09:02.330Z,95234.97
2023-03-19T17:11:35.123Z,95243.63
2023-03-19T17:14:06.263Z,95249.13
2023-03-19T17:16:34.967Z,95254.88
2023-03-19T17:19:04.343Z,95247.25
2023-03-19T17:21:34.135Z,95244.88
2023-03-19T17:24:17.711Z,95234.75
2023-03-19T17:26:45.974Z,95241.75
2023-03-19T17:29:15.392Z,95245.78
2023-03-19T17:31:43.790Z,95252.47
2023-03-19T17:34:14.822Z,95255.38
2023-03-19T17:36:45.710Z,95259.50
2023-03-19T17:39:13.608Z,95269.09
2023-03-19T17:41:41.616Z,95281.94
2023-03-19T17:44:10.082Z,95295.63
2023-03-19T17:46:41.501Z,95306.63
2023-03-19T17:49:16.652Z,95312.00
2023-03-19T17:51:44.580Z,95330.06
2023-03-19T17:54:14.192Z,95344.50
2023-03-19T17:56:43.501Z,95340.34
2023-03-19T17:59:11.475Z,95341.25
2023-03-19T18:01:43.068Z,95345.56
2023-03-19T18:04:14.275Z,95339.84
2023-03-19T18:06:44.365Z,95338.59
2023-03-19T18:09:19.719Z,95350.63
2023-03-19T18:11:47.636Z,95353.81
2023-03-19T18:14:15.598Z,95339.34
2023-03-19T18:16:45.080Z,95334.56
2023-03-19T18:19:20.448Z,95327.75
2023-03-19T18:21:48.356Z,95328.41
2023-03-19T18:24:16.270Z,95316.41
2023-03-19T18:26:44.157Z,95312.44
2023-03-19T18:29:12.068Z,95313.38
2023-03-19T18:31:41.473Z,95315.19
2023-03-19T18:34:14.227Z,95321.94
2023-03-19T18:36:42.862Z,95325.72
2023-03-19T18:39:13.604Z,95329.91
2023-03-19T18:41:42.068Z,95326.31
2023-03-19T18:44:11.015Z,95340.34
2023-03-19T18:46:40.661Z,95340.13
2023-03-19T18:49:22.434Z,95343.88
2023-03-19T18:52:02.180Z,95350.59
2023-03-19T18:54:32.009Z,95345.63
2023-03-19T18:57:00.688Z,95355.22
2023-03-19T18:59:32.617Z,95351.16
2023-03-19T19:02:03.043Z,95347.94
2023-03-19T19:04:32.384Z,95368.34
2023-03-19T19:07:01.687Z,95367.19
2023-03-19T19:09:29.738Z,95365.81
2023-03-19T19:12:01.054Z,95377.00
2023-03-19T19:14:29.444Z,95382.88
2023-03-19T19:16:58.572Z,95399.03
2023-03-19T19:19:28.631Z,95402.28
2023-03-19T19:21:58.014Z,95419.53
2023-03-19T19:24:25.901Z,95426.56
2023-03-19T19:26:54.380Z,95423.94
2023-03-19T19:29:25.195Z,95424.72
2023-03-19T19:31:54.329Z,95423.91
2023-03-19T19:34:22.298Z,95425.09
2023-03-19T19:36:50.958Z,95433.09
2023-03-19T19:39:20.397Z,95431.41
2023-03-19T19:41:49.113Z,95437.41
2023-03-19T19:44:19.966Z,95451.47
2023-03-19T19:46:47.948Z,95453.09
2023-03-19T19:49:16.405Z,95451.13
2023-03-19T19:51:44.294Z,95461.94
2023-03-19T19:54:12.222Z,95473.38
2023-03-19T19:56:41.646Z,95463.56
2023-03-19T19:59:15.443Z,95464.78
2023-03-19T20:01:43.614Z,95465.97
2023-03-19T20:04:15.106Z,95479.56
2023-03-19T20:06:43.066Z,95475.97
2023-03-19T20:09:11.259Z,95482.00
2023-03-19T20:11:39.600Z,95482.38
2023-03-19T20:14:14.443Z,95479.94
2023-03-19T20:16:42.433Z,95491.16
2023-03-19T20:19:18.817Z,95496.38
2023-03-19T20:21:46.795Z,95497.16
2023-03-19T20:24:14.700Z,95506.16
2023-03-19T20:26:43.490Z,95503.53
2023-03-19T20:29:15.956Z,95505.56
2023-03-19T20:31:47.062Z,95510.34
2023-03-19T20:34:28.756Z,95506.34
2023-03-19T20:37:04.193Z,95513.56
2023-03-19T20:39:32.071Z,95511.38
2023-03-19T20:42:00.042Z,95511.97
2023-03-19T20:44:29.827Z,95507.53
2023-03-19T20:46:59.045Z,95501.13
2023-03-19T20:49:27.045Z,95509.53
2023-03-19T20:51:54.973Z,95510.94
2023-03-19T20:54:23.723Z,95503.91
2023-03-19T20:56:52.901Z,95506.72
2023-03-19T20:59:20.806Z,95505.72
2023-03-19T21:01:50.397Z,95509.94
2023-03-19T21:04:21.039Z,95513.53
2023-03-19T21:06:53.469Z,95509.13
2023-03-19T21:09:22.675Z,95512.53
2023-03-19T21:11:52.137Z,95503.72
2023-03-19T21:14:23.251Z,95509.94
2023-03-19T21:16:52.523Z,95521.78
2023-03-19T21:19:20.475Z,95523.19
2023-03-19T21:21:48.411Z,95519.56
2023-03-19T21:24:20.565Z,95519.22
2023-03-19T21:26:48.792Z,95522.44
2023-03-19T21:29:22.538Z,95523.22
2023-03-19T21:31:54.210Z,95530.81
2023-03-19T21:34:22.179Z,95527.63
2023-03-19T21:36:50.108Z,95529.44
2023-03-19T21:39:18.578Z,95530.44
2023-03-19T21:41:47.609Z,95527.63
2023-03-19T21:44:19.592Z,95529.22
2023-03-19T21:46:48.923Z,95529.22
2023-03-19T21:49:18.258Z,95527.63
2023-03-19T21:51:46.818Z,95523.59
2023-03-19T21:54:15.773Z,95525.81
2023-03-19T21:56:46.023Z,95519.22
2023-03-19T21:59:15.718Z,95522.59
2023-03-19T22:01:43.961Z,95521.59
2023-03-19T22:04:12.031Z,95524.00
2023-03-19T22:06:42.381Z,95525.19
2023-03-19T22:09:10.574Z,95519.59
2023-03-19T22:11:41.658Z,95523.19
2023-03-19T22:14:17.795Z,95510.16
2023-03-19T22:16:46.443Z,95517.41
2023-03-19T22:19:15.511Z,95515.19
2023-03-19T22:21:44.907Z,95509.59
2023-03-19T22:24:12.943Z,95510.00
2023-03-19T22:26:42.795Z,95500.78
2023-03-19T22:29:15.831Z,95503.97
2023-03-19T22:31:44.151Z,95502.78
2023-03-19T22:34:15.448Z,95495.97
2023-03-19T22:36:45.298Z,95491.19
2023-03-19T22:39:13.740Z,95491.59
2023-03-19T22:41:45.553Z,95495.97
2023-03-19T22:44:21.011Z,95487.56
2023-03-19T22:46:49.072Z,95492.41
2023-03-19T22:49:18.860Z,95493.00
2023-03-19T22:51:48.282Z,95496.38
2023-03-19T22:54:16.388Z,95501.59
2023-03-19T22:56:44.479Z,95505.59
2023-03-19T22:59:12.415Z,95502.81
2023-03-19T23:01:43.218Z,95505.22
2023-03-19T23:04:19.878Z,95500.41
2023-03-19T23:06:49.702Z,95493.56
2023-03-19T23:09:19.322Z,95503.00
2023-03-19T23:11:48.318Z,95499.19
2023-03-19T23:14:28.620Z,95501.19
2023-03-19T23:19:29.141Z,95501.19
2023-03-19T23:21:59.684Z,95495.19
2023-03-19T23:24:30.208Z,95495.56
2023-03-19T23:26:59.820Z,95494.78
2023-03-19T23:29:31.209Z,95490.31
2023-03-19T23:31:59.544Z,95492.56
2023-03-19T23:34:28.513Z,95493.56
2023-03-19T23:36:58.097Z,95488.72
2023-03-19T23:39:26.704Z,95485.13
2023-03-19T23:41:58.184Z,95487.50
2023-03-19T23:44:29.062Z,95485.13
2023-03-19T23:47:00.949Z,95486.31
2023-03-19T23:49:30.803Z,95483.50
2023-03-19T23:52:00.752Z,95482.31
2023-03-19T23:54:31.586Z,95481.50
2023-03-19T23:57:02.108Z,95480.31
2023-03-19T23:59:33.926Z,95478.72
